• Join FlightAware (Why Join?)
  • Login
  • US Flag 
02:23AM EDT


 

Airport Tracker/Info


-or-


 

Live Flight TrackerFlight Track Log ✈ SWA2436 ✈ 11-Apr-2013 ✈ KMCO - KMSY

Flight Track Log - Related Links

Times and Time Zones

All times are in EDT time to prevent confusion due to time zone crossing. See the SWA2436 flight status page for this flight to view local times or setup timezone preferences in your user account.

Time Position Orientation Groundspeed Altitude Reporting Facility
EDT Latitude Longitude Course Direction KTS MPH feet Rate Location/Type
08:39PM 28.3319 -81.4731 270° West 278 320 38,000  Level Jacksonville Center
08:40PM 28.3161 -81.5603 258° West 284 327 11,300 -12,000 Descending Jacksonville Center
08:41PM 28.3153 -81.6711 270° West 316 364 14,000 2,940 Climbing Jacksonville Center
08:42PM 28.4167 -81.9489 270° West  Level FlightAware Approximate
08:42PM 28.3267 -81.7819 277° West 342 394 17,200  Level Jacksonville Center
08:43PM 28.4167 -82.0570 270° West  Level FlightAware Approximate
08:43PM 28.3611 -81.8972 289° West 368 423 19,800  Level Jacksonville Center
08:44PM 28.4167 -82.1652 270° West  Level FlightAware Approximate
08:44PM 28.3931 -82.0078 288° West 373 429 22,900  Level Jacksonville Center
08:45PM 28.4167 -82.2733 270° West  Level FlightAware Approximate
08:45PM 28.4272 -82.1161 290° West 373 429 23,100  Level Jacksonville Center
08:46PM 28.4633 -82.2267 290° West 368 423 25,000 1,920 Climbing Jacksonville Center
08:47PM 28.5014 -82.3397 291° West 373 429 27,000 2,100 Climbing Jacksonville Center
08:48PM 28.5497 -82.4458 297° West 373 429 29,300 1,500 Climbing Jacksonville Center
08:49PM 28.6419 -82.5283 322° Northwest 393 452 30,000 1,500 Climbing Jacksonville Center
08:50PM 28.7236 -82.6061 320° Northwest 410 472 32,300 2,220 Climbing Jacksonville Center
08:51PM 28.8092 -82.6911 319° Northwest 415 478 34,500 2,040 Climbing Jacksonville Center
08:52PM 28.8969 -82.7717 321° Northwest 410 472 36,400 1,740 Climbing Jacksonville Center
08:53PM 28.9806 -82.8522 320° Northwest 410 472 38,000 780 Climbing Jacksonville Center
08:54PM 29.0661 -82.9306 321° Northwest 405 466 38,000  Level Jacksonville Center
08:55PM 29.1475 -83.0092 320° Northwest 400 460 38,000  Level Jacksonville Center
08:56PM 29.2308 -83.0900 320° Northwest 400 460 38,000  Level Jacksonville Center
08:57PM 29.3206 -83.1761 320° Northwest 395 455 38,000  Level Jacksonville Center
08:58PM 29.4017 -83.2550 320° Northwest 390 449 38,000  Level Jacksonville Center
08:59PM 29.4828 -83.3339 320° Northwest 385 443 38,000  Level Jacksonville Center
09:00PM 29.5661 -83.4108 321° Northwest 385 443 38,000  Level Jacksonville Center
09:01PM 29.6450 -83.4900 319° Northwest 385 443 38,000  Level Jacksonville Center
09:02PM 29.7281 -83.5647 322° Northwest 385 443 38,000 300 Level Jacksonville Center
09:03PM 29.8111 -83.6489 319° Northwest 385 443 38,600 720 Climbing Jacksonville Center
09:04PM 29.8942 -83.7264 321° Northwest 385 443 39,500 660 Climbing Jacksonville Center
09:05PM 29.9772 -83.8086 319° Northwest 385 443 40,000 240 Climbing Jacksonville Center
09:06PM 30.0622 -83.8886 321° Northwest 385 443 40,000  Level Jacksonville Center
09:07PM 30.1472 -83.9711 320° Northwest 385 443 40,000  Level Jacksonville Center
09:08PM 30.2278 -84.0514 319° Northwest 385 443 40,000  Level Jacksonville Center
09:09PM 30.3128 -84.1342 320° Northwest 385 443 40,000  Level Jacksonville Center
09:10PM 30.3850 -84.2072 319° Northwest 385 443 40,000  Level Jacksonville Center
09:11PM 30.4697 -84.2881 321° Northwest 385 443 40,000  Level Jacksonville Center
09:12PM 30.5606 -84.3811 319° Northwest 385 443 40,000  Level Jacksonville Center
09:13PM 30.5906 -84.4853 289° West 373 429 40,000  Level Jacksonville Center
09:14PM 30.6247 -84.5944 290° West 363 418 40,000  Level Jacksonville Center
09:15PM 30.6608 -84.7061 291° West 363 418 40,000  Level Jacksonville Center
09:16PM 30.6947 -84.8181 289° West 363 418 40,000  Level Jacksonville Center
09:17PM 30.7306 -84.9297 290° West 368 423 40,000  Level Jacksonville Center
09:18PM 30.7642 -85.0442 289° West 368 423 40,000  Level Jacksonville Center
09:19PM 30.7933 -85.1608 286° West 368 423 40,000  Level Jacksonville Center
09:20PM 30.7975 -85.2747 272° West 362 417 40,000  Level Jacksonville Center
09:21PM 30.7975 -85.3858 270° West 357 411 40,000  Level Jacksonville Center
09:22PM 30.8017 -85.4950 273° West 346 398 40,000  Level Jacksonville Center
09:23PM 30.8033 -85.6061 271° West 346 398 40,000  Level Jacksonville Center
09:24PM 30.8050 -85.7200 271° West 346 398 40,000  Level Jacksonville Center
09:25PM 30.8089 -85.8314 272° West 346 398 40,000  Level Jacksonville Center
09:26PM 30.8167 -85.9428 275° West 346 398 40,000  Level Jacksonville Center
09:27PM 30.8494 -86.0503 290° West 346 398 40,000  Level Jacksonville Center
09:28PM 30.8844 -86.1581 291° West 351 404 40,000 -360 Level Jacksonville Center
09:29PM 30.9236 -86.2586 294° West 351 404 39,300 -1,020 Descending Jacksonville Center
09:30PM 30.9581 -86.3664 290° West 356 410 38,000 -660 Descending Jacksonville Center
09:31PM 30.9989 -86.4794 293° West 361 415 38,000  Level Jacksonville Center
09:32PM 30.9978 -86.5933 269° West 354 407 38,000  Level Jacksonville Center
09:33PM 30.9711 -86.7158 256° West 346 398 38,000  Level Jacksonville Center
09:34PM 30.9428 -86.8258 253° West 351 404 38,000  Level Jacksonville Center
09:35PM 30.9142 -86.9361 253° West 351 404 38,000  Level Jacksonville Center
09:36PM 30.8856 -87.0439 253° West 356 410 38,000  Level Jacksonville Center
09:37PM 30.8569 -87.1514 253° West 356 410 38,000  Level Jacksonville Center
09:38PM 30.8283 -87.2614 253° West 356 410 38,000  Level Jacksonville Center
09:39PM 30.8039 -87.3594 254° West 356 410 38,000  Level Jacksonville Center
09:41PM 30.7597 -87.5297 253° West 359 413 38,000  Level Houston Center
09:42PM 30.7300 -87.6367 252° West 352 405 38,000  Level Houston Center
09:43PM 30.6967 -87.7614 253° West 347 399 38,000  Level Houston Center
09:44PM 30.6681 -87.8750 254° West 354 407 38,000  Level Houston Center
09:45PM 30.6392 -87.9853 253° West 356 410 38,000  Level Houston Center
09:46PM 30.6094 -88.0961 253° West 358 412 38,000 -120 Level Houston Center
09:47PM 30.5783 -88.2081 252° West 361 415 37,800 -600 Descending Houston Center
09:48PM 30.5483 -88.3208 253° West 364 419 36,800 -960 Descending Houston Center
09:49PM 30.5175 -88.4381 253° West 377 434 35,900 -1,500 Descending Houston Center
09:50PM 30.4861 -88.5522 252° West 372 428 33,800 -2,100 Descending Houston Center
09:51PM 30.4547 -88.6647 252° West 366 421 31,700 -2,040 Descending Houston Center
09:52PM 30.4264 -88.7733 253° West 355 409 29,700 -1,980 Descending Houston Center
09:53PM 30.3989 -88.8775 253° West 340 391 27,700 -2,040 Descending Houston Center
09:54PM 30.3689 -88.9889 253° West 325 374 25,600 -1,980 Descending Houston Center
09:55PM 30.3425 -89.0853 252° West 317 365 23,700 -1,860 Descending Houston Center
09:56PM 30.3158 -89.1800 252° West 311 358 21,900 -1,860 Descending Houston Center
09:57PM 30.2906 -89.2747 253° West 310 357 20,000 -1,860 Descending Houston Center
09:58PM 30.2650 -89.3675 252° West 305 351 18,200 -1,980 Descending Houston Center
09:59PM 30.2400 -89.4611 253° West 302 348 16,300 -1,860 Descending Houston Center
10:00PM 30.2103 -89.5636 251° West 292 336 14,500 -1,740 Descending Houston Center
10:01PM 30.1861 -89.6464 251° West 268 308 12,700 -1,920 Descending Houston Center
10:02PM 30.1594 -89.7222 248° West 255 293 10,700 -2,100 Descending Houston Center
10:03PM 30.1347 -89.7956 249° West 245 282 8,500 -2,040 Descending Houston Center
10:04PM 30.1100 -89.8689 249° West 248 285 6,600 -1,740 Descending Houston Center
10:05PM 30.0867 -89.9203 242° Southwest 253 291 5,600 -1,440 Descending Houston Center
10:05PM 30.0733 -89.9469 240° Southwest 251 289 5,100 -720 Descending Houston Center
10:06PM 30.0450 -89.9894 232° Southwest 273 314 4,900 -540 Descending Houston Center
10:06PM 30.0306 -90.0183 240° Southwest 259 298 4,600 -900 Descending Houston Center
10:07PM 30.0017 -90.0681 236° Southwest 270 311 4,000 -1,080 Descending Houston Center
10:07PM 29.9883 -90.0897 235° Southwest 266 306 3,500 -1,020 Descending Houston Center
10:08PM 29.9578 -90.1369 233° Southwest 262 302 3,000 -540 Descending Houston Center
10:09PM 29.9464 -90.1578 238° Southwest 264 304 3,000 -240 Level Houston Center
10:09PM 29.9219 -90.1936 232° Southwest 211 243 2,800 -300 Descending Houston Center
10:10PM 29.9125 -90.2106 237° Southwest 222 255 2,700 -600 Descending Houston Center
10:10PM 29.8944 -90.2453 239° Southwest 164 189 2,200 -840 Descending Houston Center
10:11PM 29.9011 -90.2569 303° West 193 222 1,900 -1,020 Descending Houston Center
10:11PM 29.9200 -90.2658 338° Northwest 124 143 1,300 -840 Descending Houston Center
10:12PM 29.9347 -90.2686 351° North 154 177 1,100 -720 Descending Houston Center
10:12PM 29.9658 -90.2567 18° North 131 151 400 -900 Descending Houston Center